Accueil
METAR-TAF:

METAR-TAF

Aéroports :

Caracas, Venezuela

Aéroport international Maiquetía - Simón Bolívar

latitude: 10-36N, longitude: 066-59W, altitude: 43 m

Observation

Le bulletin a été fait il y a 52 minutes, à 01:00 UTC
Vent 3 kt de nord-est
Température 28°C
Humidité 74%
Pression 1010 hPa
Visibilité 10 km ou plus
Quelques nuages à une hauteur de 1600 ft

METAR: SVMI 260100Z 05003KT 9999 FEW016 28/23 Q1010

Heure: 21:52 (01:52 UTC)

Prévision

Le bulletin a été fait il y a 3 heures et 52 minutes, à 22:00 UTC
Prévision valable du 26 à 00 UTC au 27 à 00 UTC
Vent 9 kt de nord-est
Visibilité 10 km ou plus
Nuages épars à une hauteur de 1300 ft
Evoluant progressivement
du 26 à 00 UTC au 26 à 04 UTC
Vent 5 kt de est/nord-est

TAF: SVMI 252200Z 2600/2700 05009KT 9999 SCT013 TX34/18Z TN23/09Z BECMG 2600/2604 06005KT

Observations et prévisions météorologiques de plus de 4000 aéroports (messages METAR et TAF).

Les stations disponibles sont représentées par des disques jaunes et rouges sur la carte.

Passer la souris dessus pour voir le nom de la station.

Cliquer dessus pour voir les observations et prévisions météorologiques.

Pour changer de carte: cliquez sur les boutons verts avec une croix noire pour zoomer, sur le bouton vert avec un tiret pour effectuer un zoom arrière, ou sur les flèches vertes pour les cartes adjacentes.


METAR-TAF: